logo tempoitalia

Diretta Meteo Istres, Francialunedì 31 agosto ore 07:00

Mappa
Sereno 20 °C Poco Nuvoloso 24 Ore: T.min 20 T.max 33
Ponente Nord/Nord-Est Km/h 9.3 Punto di rugiada: 17 °C Umidità: 82% Visibilità: 10 Km
Il sole sorge alle: 07:03 Il sole tramonta alle: 20:18
31 Agosto 2026 07:00 tempo osservato: Poco Nuvoloso Poco Nuvoloso 20 82 1016 vento: Nord N/NE 9.3
31 Agosto 2026 06:30 tempo osservato: Molto Nuvoloso Molto Nuvoloso 20 82 1016 vento: Nord N/NE 9.3
31 Agosto 2026 06:00 tempo osservato: Nuvoloso Nuvoloso 21 77 1016 vento: Nord NE 11.1
31 Agosto 2026 05:30 tempo osservato: Poco Nuvoloso Poco Nuvoloso 21 77 1016 vento: Nord NE 7.4
31 Agosto 2026 05:00 tempo osservato: Molto Nuvoloso Molto Nuvoloso 22 78 1016 vento: Nord N/NE 7.4
31 Agosto 2026 04:30 tempo osservato: Molto Nuvoloso Molto Nuvoloso 21 82 1016 vento: Nord N 9.3
31 Agosto 2026 04:00 tempo osservato: Sereno Sereno 22 83 1016 vento: Nord N 5.5
31 Agosto 2026 03:30 tempo osservato: Sereno Sereno 23 78 1016 vento: Nord E 9.3
31 Agosto 2026 03:00 tempo osservato: Sereno Sereno 23 78 1016 vento: Nord E 7.4
31 Agosto 2026 02:30 tempo osservato: Sereno Sereno 23 78 1016 vento: Nord E 7.4
31 Agosto 2026 02:00 tempo osservato: Sereno Sereno 23 78 1016 vento: Nord N 5.5
31 Agosto 2026 01:30 tempo osservato: Sereno Sereno 22 83 1017 vento: Nord N 3.7
31 Agosto 2026 01:00 tempo osservato: Sereno Sereno 23 78 1016 vento: Nord N 3.7
31 Agosto 2026 00:30 tempo osservato: Sereno Sereno 24 73 1016 vento: Nord N 5.5
31 Agosto 2026 00:00 tempo osservato: Sereno Sereno 24 73 1016 vento: Nord E 7.4
30 Agosto 2026 23:30 tempo osservato: Sereno Sereno 23 78 1016 vento: Nord N 5.5
30 Agosto 2026 23:00 tempo osservato: Sereno Sereno 23 78 1016 vento: Nord E 7.4
30 Agosto 2026 22:30 tempo osservato: Sereno Sereno 24 73 1016 vento: Nord N 3.7
30 Agosto 2026 22:00 tempo osservato: Sereno Sereno 24 73 1016 vento: Nord N 3.7
30 Agosto 2026 21:30 tempo osservato: Sereno Sereno 24 73 1016 vento: Nord N 5.5
30 Agosto 2026 21:00 tempo osservato: Sereno Sereno 24 73 1015 vento: Nord O 9.3
30 Agosto 2026 20:30 tempo osservato: Sereno Sereno 25 69 1015 vento: Nord O 9.3
30 Agosto 2026 20:00 tempo osservato: Sereno Sereno 27 57 1014 vento: Nord SO 13
30 Agosto 2026 19:30 tempo osservato: Sereno Sereno 28 58 1014 vento: Nord SO 18.5
30 Agosto 2026 19:00 tempo osservato: Sereno Sereno 30 48 1014 vento: Nord SO 18.5
30 Agosto 2026 18:30 tempo osservato: Sereno Sereno 31 40 1014 vento: Nord O/SO 22.2
30 Agosto 2026 18:00 tempo osservato: Sereno Sereno 32 35 1014 vento: Nord O 24
30 Agosto 2026 17:30 tempo osservato: Sereno Sereno 33 29 1014 vento: Nord O/SO 24
30 Agosto 2026 17:00 tempo osservato: Sereno Sereno 33 29 1014 vento: Nord O 22.2
30 Agosto 2026 16:30 tempo osservato: Sereno Sereno 33 33 1014 vento: Nord O/SO 16.7
30 Agosto 2026 16:00 tempo osservato: Sereno Sereno 32 35 1014 vento: Nord O 14.8
30 Agosto 2026 15:30 tempo osservato: Sereno Sereno 32 38 1015 vento: Nord O/NO 14.8
30 Agosto 2026 15:00 tempo osservato: Sereno Sereno 32 38 1015 vento: Nord O 18.5
30 Agosto 2026 14:30 tempo osservato: Sereno Sereno 32 35 1015 vento: Nord O 16.7
30 Agosto 2026 14:00 tempo osservato: Sereno Sereno 31 37 1015 vento: Nord O 13
30 Agosto 2026 13:30 tempo osservato: Sereno Sereno 31 37 1015 vento: Nord O/NO 14.8
30 Agosto 2026 13:00 tempo osservato: Sereno Sereno 31 35 1015 vento: Nord NO 14.8
30 Agosto 2026 12:30 tempo osservato: Sereno Sereno 30 37 1016 vento: Nord N 14.8
30 Agosto 2026 12:00 tempo osservato: Sereno Sereno 29 39 1016 vento: Nord N/NO 16.7
30 Agosto 2026 11:30 tempo osservato: Sereno Sereno 29 39 1016 vento: Nord N/NO 16.7
30 Agosto 2026 11:00 tempo osservato: Sereno Sereno 28 45 1016 vento: Nord N 13
30 Agosto 2026 10:30 tempo osservato: Sereno Sereno 27 47 1016 vento: Nord N 11.1
30 Agosto 2026 10:00 tempo osservato: Sereno Sereno 26 50 1016 vento: Nord N 13
30 Agosto 2026 09:30 tempo osservato: Sereno Sereno 25 53 1016 vento: Nord N/NO 13
30 Agosto 2026 09:00 tempo osservato: Sereno Sereno 23 60 1016 vento: Nord NO 11.1
30 Agosto 2026 08:30 tempo osservato: Sereno Sereno 21 73 1016 vento: Nord O 9.3
30 Agosto 2026 08:00 tempo osservato: Sereno Sereno 20 77 1015 vento: Nord O/NO 11.1